Home > Products > Valid Products > TAF

000
FTUS41 KBGM 270500
TAFBGM
TAF
KBGM 270535Z 2706/2806 31008KT P6SM OVC008
     FM271300 32007KT P6SM OVC012
     FM272000 34006KT P6SM OVC025=



000
FTUS41 KBGM 270500
TAFAVP
TAF
KAVP 270535Z 2706/2806 36008KT P6SM OVC015
     FM271400 34007KT P6SM OVC025
     FM271800 34008KT P6SM BKN035=



000
FTUS41 KBGM 270500
TAFSYR
TAF
KSYR 270535Z 2706/2806 26005KT P6SM OVC008
     FM271000 28007KT P6SM OVC015
     FM272000 32007KT P6SM OVC015=



000
FTUS41 KBGM 270500
TAFELM
TAF
KELM 270535Z 2706/2806 27005KT P6SM OVC025
     FM271400 33007KT P6SM OVC035=



000
FTUS41 KBGM 270500
TAFITH
TAF
KITH 270535Z 2706/2806 30004KT 3SM BR OVC004
      TEMPO 2706/2710 P6SM NSW SCT004 OVC025
     FM271000 30005KT P6SM OVC010
     FM271400 32008KT P6SM OVC015=



000
FTUS41 KBGM 270300 AAA
TAFITH
TAF AMD
KITH 270329Z 2703/2724 32005KT 1SM -SHSN BR OVC002
     FM271000 32005KT 3SM -SHSN BR OVC005
     FM271300 33005KT P6SM OVC008
     FM271500 32008KT P6SM OVC015=



000
FTUS41 KBGM 270300 AAA
TAFITH
TAF AMD
KITH 270329Z 2703/2724 32005KT 1SM -SHSN BR OVC002
     FM271000 32005KT 3SM -SHSN BR OVC005
     FM271300 33005KT P6SM OVC008
     FM271500 32008KT P6SM OVC015=



000
FTUS41 KBGM 262300
TAFAVP
TAF
KAVP 262330Z 2700/2724 32008KT P6SM SCT008 OVC015
      TEMPO 2700/2702 3SM -SHRA BR OVC008
     FM270200 VRB03KT P6SM OVC015
     FM271400 34008KT P6SM OVC025
     FM271900 34008KT P6SM SCT025 BKN035=



000
FTUS41 KBGM 262300
TAFELM
TAF
KELM 262330Z 2700/2724 VRB03KT P6SM OVC015
      TEMPO 2700/2702 3SM -RASN BR OVC008
     FM270200 VRB03KT P6SM OVC012
     FM271400 31008KT P6SM OVC025=



000
FTUS41 KBGM 262300
TAFSYR
TAF
KSYR 262330Z 2700/2724 29005KT 3SM -RASN BR SCT005 OVC015
      TEMPO 2700/2702 OVC005
     FM270200 29005KT 5SM -SHSN BR OVC008
     FM270800 29008KT P6SM OVC015
     FM271800 31010KT P6SM OVC025=



000
FTUS41 KBGM 262300
TAFBGM
TAF
KBGM 262330Z 2700/2724 34008KT 2SM -RASN BR SCT002 OVC008
      TEMPO 2700/2703 3/4SM -SN BR OVC002
     FM270300 33005KT 3SM -SHSN BR OVC008
     FM270900 33010KT P6SM OVC012=



000
FTUS41 KBGM 262300
TAFITH
TAF
KITH 262330Z 2700/2724 32005KT 1/2SM -SN FG OVC002
      TEMPO 2700/2702 1SM -RASN BR SCT002 OVC005
     FM270200 32005KT 3SM -SHSN BR OVC005
     FM270800 33005KT P6SM OVC008
     FM271400 32008KT P6SM OVC015=



000
FTUS41 KBGM 262200 AAA
TAFAVP
TAF AMD
KAVP 262210Z 2622/2718 34008KT 3SM -RA BR OVC015
      TEMPO 2700/2704 2SM -RA BR OVC008
     FM270400 33005KT 5SM BR OVC015
     FM271400 34005KT P6SM OVC025=



000
FTUS41 KBGM 262200 AAA
TAFAVP
TAF AMD
KAVP 262210Z 2622/2718 34008KT 3SM -RA BR OVC015
      TEMPO 2700/2704 2SM -RA BR OVC008
     FM270400 33005KT 5SM BR OVC015
     FM271400 34005KT P6SM OVC025=



000
FTUS41 KBGM 262200 AAA
TAFBGM
TAF AMD
KBGM 262209Z 2622/2718 34008KT 1 1/2SM -RA BR OVC006
      TEMPO 2622/2701 1/2SM -RA FG OVC002
     FM270100 32005KT 1SM -SN BR OVC005
     FM270300 32005KT 5SM -SHSN BR OVC008
     FM271400 32008KT P6SM OVC015=



000
FTUS41 KBGM 262200 AAA
TAFELM
TAF AMD
KELM 262206Z 2622/2718 VRB03KT 4SM -RA BR OVC015
      TEMPO 2622/2702 2SM -RA BR OVC008
     FM270200 VRB03KT 5SM BR OVC015
      TEMPO 2702/2704 2SM -SHSN BR OVC008
     FM271400 32005KT P6SM OVC025=



000
FTUS41 KBGM 262200 AAB
TAFITH
TAF AMD
KITH 262203Z 2622/2718 33005KT 1/2SM -RA FG OVC002
      TEMPO 2622/2702 1SM -RA BR SCT002 OVC005
     FM270200 32005KT 3SM -SHSN BR OVC009
     FM271400 32008KT P6SM OVC015=



000
FTUS41 KBGM 262200 AAB
TAFITH
TAF AMD
KITH 262203Z 2622/2718 33005KT 1/2SM -RA FG OVC002
      TEMPO 2622/2702 1SM -RA BR SCT002 OVC005
     FM270200 32005KT 3SM -SHSN BR OVC009
     FM271400 32008KT P6SM OVC015=



000
FTUS41 KBGM 262200 AAA
TAFSYR
TAF AMD
KSYR 262201Z 2622/2718 32005KT 3SM -RASN BR OVC008
      TEMPO 2622/2624 1SM -SN BR OVC005
     FM270000 30005KT 3/4SM -SN BR OVC005
     FM270200 28005KT 5SM -SHSN OVC015
     FM271400 32008KT P6SM OVC025=



000
FTUS41 KBGM 262200 AAA
TAFSYR
TAF AMD
KSYR 262201Z 2622/2718 32005KT 3SM -RASN BR OVC008
      TEMPO 2622/2624 1SM -SN BR OVC005
     FM270000 30005KT 3/4SM -SN BR OVC005
     FM270200 28005KT 5SM -SHSN OVC015
     FM271400 32008KT P6SM OVC025=



000
FTUS41 KBGM 261900 AAA
TAFITH
TAF AMD
KITH 261901Z 2619/2718 VRB04KT 3/4SM -RA BR OVC005
      TEMPO 2620/2622 1SM -SNRA BR
     FM262200 33005KT 1SM -SN BR OVC007
     FM270200 32005KT 5SM -SHSN BR OVC009
     FM271400 32008KT P6SM OVC015=



000
FTUS41 KBGM 261700
TAFSYR
TAF
KSYR 261737Z 2618/2718 VRB04KT 2SM -RA BR OVC015
      TEMPO 2620/2622 1SM -RASN BR OVC007
     FM262200 29005KT 3/4SM -SN BR OVC006
     FM270200 28005KT 5SM -SHSN OVC015
     FM271400 32008KT P6SM OVC025=



000
FTUS41 KBGM 261700
TAFITH
TAF
KITH 261737Z 2618/2718 VRB04KT 1 1/2SM -RA BR OVC007
      TEMPO 2620/2622 1SM -SNRA BR
     FM262200 33005KT 1SM -SN BR OVC007
     FM270200 32005KT 5SM -SHSN BR OVC009
     FM271400 32008KT P6SM OVC015=



000
FTUS41 KBGM 261700
TAFELM
TAF
KELM 261737Z 2618/2718 VRB05KT 1 1/2SM -RA BR OVC012
      TEMPO 2621/2623 1SM -SNRA BR OVC008
     FM262300 34003KT 2SM -SN BR OVC008
     FM270200 30003KT 5SM BR OVC015
     FM271400 32005KT P6SM OVC025=



000
FTUS41 KBGM 261700
TAFAVP
TAF
KAVP 261737Z 2618/2718 VRB04KT 5SM -SHRA BR OVC015
     FM262100 VRB04KT 3SM -RA BR OVC015
     FM270400 33005KT 5SM BR OVC015
     FM271400 34005KT P6SM OVC025=



000
FTUS41 KBGM 261700
TAFBGM
TAF
KBGM 261737Z 2618/2718 VRB04KT 3/4SM -SHRA BR VV003
     FM262000 VRB04KT 1 1/2SM -RA BR OVC005
      TEMPO 2622/2624 1SM -SNRA BR
     FM270000 32005KT 1SM -SN BR OVC005
     FM270300 32005KT 5SM -SHSN BR OVC008
     FM271400 32008KT P6SM OVC015=



000
FTUS41 KBGM 261700
TAFITH
TAF
KITH 261737Z 2618/2718 VRB04KT 1 1/2SM -RA BR OVC007
      TEMPO 2620/2622 1SM -SNRA BR
     FM262200 33005KT 1SM -SN BR OVC007
     FM270200 32005KT 5SM -SHSN BR OVC009
     FM271400 32008KT P6SM OVC015=



000
FTUS41 KBGM 261700
TAFAVP
TAF
KAVP 261737Z 2618/2718 VRB04KT 5SM -SHRA BR OVC015
     FM262100 VRB04KT 3SM -RA BR OVC015
     FM270400 33005KT 5SM BR OVC015
     FM271400 34005KT P6SM OVC025=



000
FTUS41 KBGM 261700
TAFSYR
TAF
KSYR 261737Z 2618/2718 VRB04KT 2SM -RA BR OVC015
      TEMPO 2620/2622 1SM -RASN BR OVC007
     FM262200 29005KT 3/4SM -SN BR OVC006
     FM270200 28005KT 5SM -SHSN OVC015
     FM271400 32008KT P6SM OVC025=



000
FTUS41 KBGM 261700
TAFELM
TAF
KELM 261737Z 2618/2718 VRB05KT 1 1/2SM -RA BR OVC012
      TEMPO 2621/2623 1SM -SNRA BR OVC008
     FM262300 34003KT 2SM -SN BR OVC008
     FM270200 30003KT 5SM BR OVC015
     FM271400 32005KT P6SM OVC025=



000
FTUS41 KBGM 261700
TAFBGM
TAF
KBGM 261737Z 2618/2718 VRB04KT 3/4SM -SHRA BR VV003
     FM262000 VRB04KT 1 1/2SM -RA BR OVC005
      TEMPO 2622/2624 1SM -SNRA BR
     FM270000 32005KT 1SM -SN BR OVC005
     FM270300 32005KT 5SM -SHSN BR OVC008
     FM271400 32008KT P6SM OVC015=



000
FTUS41 KBGM 261600 AAB
TAFSYR
TAF AMD
KSYR 261602Z 2616/2712 34005KT 2SM -RA BR OVC012
      TEMPO 2620/2623 1SM -RASN BR OVC007
     FM262300 27006KT 2SM -SN BR OVC007
     FM270400 26005KT 5SM -SHSN OVC015=



000
FTUS41 KBGM 261600 AAB
TAFSYR
TAF AMD
KSYR 261602Z 2616/2712 34005KT 2SM -RA BR OVC012
      TEMPO 2620/2623 1SM -RASN BR OVC007
     FM262300 27006KT 2SM -SN BR OVC007
     FM270400 26005KT 5SM -SHSN OVC015=



000
FTUS41 KBGM 261600 AAA
TAFSYR
TAF AMD
KSYR 261601Z 2616/2712 34005KT 3SM -RA BR OVC012
      TEMPO 2620/2623 1SM -RASN BR OVC007
     FM262300 27006KT 2SM -SN BR OVC007
     FM270400 26005KT 5SM -SHSN OVC015=



000
FTUS41 KBGM 261500 AAA
TAFBGM
TAF AMD
KBGM 261527Z 2615/2712 VRB04KT 2SM -RA BR OVC025
      TEMPO 2616/2618 1SM TSRA BR OVC015CB
     FM261800 18004KT 5SM -RA BR OVC009
     FM262200 32006KT 2SM -RASN BR OVC005
     FM270100 32006KT 2SM -SN BR OVC005
     FM270600 30005KT 5SM -SHSN BR OVC008=



000
FTUS41 KBGM 261300 AAB
TAFELM
TAF AMD
KELM 261345Z 2614/2712 VRB03KT 3SM -RA BR OVC035
      TEMPO 2614/2615 1 1/2SM TSRA BR OVC015CB
     FM261500 VRB03KT 5SM -RA BR OVC025
     FM261700 VRB05KT 2SM -RA BR OVC008
     FM262200 VRB05KT 2SM -RASN BR OVC008
     FM270100 VRB03KT 2SM -SN BR OVC008
     FM270400 VRB03KT 5SM -SHSN BR OVC015=



000
FTUS41 KBGM 261300 AAA
TAFELM
TAF AMD
KELM 261323Z 2613/2712 VRB03KT 3SM -RA BR OVC035
      TEMPO 2613/2614 2SM -FZRA BR OVC025
     FM261400 VRB03KT 5SM -RA BR OVC025
     FM261600 VRB05KT 2SM -RA BR OVC008
     FM262200 VRB05KT 2SM -RASN BR OVC008
     FM270100 VRB03KT 2SM -SN BR OVC008
     FM270400 VRB03KT 5SM -SHSN BR OVC015=



000
FTUS41 KBGM 261100
TAFITH
TAF
KITH 261133Z 2612/2712 20005KT P6SM SCT025 BKN200
      TEMPO 2612/2614 OVC025
     FM261400 VRB03KT 5SM -RA BR OVC015
     FM261600 VRB05KT 2SM -RA BR OVC008
     FM262000 33006KT 2SM -RASN BR OVC007
     FM270000 34005KT 2SM -SN BR OVC007
     FM270600 31005KT 2SM -SHSN BR OVC008=



000
FTUS41 KBGM 261100
TAFSYR
TAF
KSYR 261133Z 2612/2712 20008KT P6SM OVC025
     FM261500 VRB03KT 5SM -RA BR OVC015
     FM261700 34005KT 3SM -RA BR OVC012
      TEMPO 2619/2623 2SM -RASN BR OVC007
     FM262300 27006KT 2SM -SN BR OVC007
     FM270400 26005KT 5SM -SHSN OVC015=



000
FTUS41 KBGM 261100
TAFAVP
TAF
KAVP 261133Z 2612/2712 VRB03KT 5SM BR SCT025 BKN200
     FM261500 21005KT P6SM OVC015
     FM261800 22008G15KT 4SM -RA BR OVC015
     FM270300 33006KT 3SM -RASN BR OVC015
     FM270800 33005KT 5SM BR OVC025=



000
FTUS41 KBGM 261100
TAFELM
TAF
KELM 261133Z 2612/2712 00000KT 3SM BR BKN100
     FM261400 VRB03KT 5SM -RA BR OVC015
     FM261600 VRB05KT 2SM -RA BR OVC008
     FM262200 VRB05KT 2SM -RASN BR OVC008
     FM270100 VRB03KT 2SM -SN BR OVC008
     FM270400 VRB03KT 5SM -SHSN BR OVC015=



000
FTUS41 KBGM 261100
TAFBGM
TAF
KBGM 261133Z 2612/2712 20006KT P6SM SCT015 BKN150
      TEMPO 2612/2615 4SM BR OVC015
     FM261500 18006KT 5SM -RA BR OVC009
     FM262200 32006KT 2SM -RASN BR OVC005
     FM270100 32006KT 2SM -SN BR OVC005
     FM270600 30005KT 5SM -SHSN BR OVC008=



000
FTUS41 KBGM 261100
TAFBGM
TAF
KBGM 261133Z 2612/2712 20006KT P6SM SCT015 BKN150
      TEMPO 2612/2615 4SM BR OVC015
     FM261500 18006KT 5SM -RA BR OVC009
     FM262200 32006KT 2SM -RASN BR OVC005
     FM270100 32006KT 2SM -SN BR OVC005
     FM270600 30005KT 5SM -SHSN BR OVC008=



000
FTUS41 KBGM 261100
TAFELM
TAF
KELM 261133Z 2612/2712 00000KT 3SM BR BKN100
     FM261400 VRB03KT 5SM -RA BR OVC015
     FM261600 VRB05KT 2SM -RA BR OVC008
     FM262200 VRB05KT 2SM -RASN BR OVC008
     FM270100 VRB03KT 2SM -SN BR OVC008
     FM270400 VRB03KT 5SM -SHSN BR OVC015=



000
FTUS41 KBGM 261100
TAFAVP
TAF
KAVP 261133Z 2612/2712 VRB03KT 5SM BR SCT025 BKN200
     FM261500 21005KT P6SM OVC015
     FM261800 22008G15KT 4SM -RA BR OVC015
     FM270300 33006KT 3SM -RASN BR OVC015
     FM270800 33005KT 5SM BR OVC025=



000
FTUS41 KBGM 261100
TAFSYR
TAF
KSYR 261133Z 2612/2712 20008KT P6SM OVC025
     FM261500 VRB03KT 5SM -RA BR OVC015
     FM261700 34005KT 3SM -RA BR OVC012
      TEMPO 2619/2623 2SM -RASN BR OVC007
     FM262300 27006KT 2SM -SN BR OVC007
     FM270400 26005KT 5SM -SHSN OVC015=



000
FTUS41 KBGM 261100
TAFITH
TAF
KITH 261133Z 2612/2712 20005KT P6SM SCT025 BKN200
      TEMPO 2612/2614 OVC025
     FM261400 VRB03KT 5SM -RA BR OVC015
     FM261600 VRB05KT 2SM -RA BR OVC008
     FM262000 33006KT 2SM -RASN BR OVC007
     FM270000 34005KT 2SM -SN BR OVC007
     FM270600 31005KT 2SM -SHSN BR OVC008=



000
FTUS41 KBGM 260900 AAA
TAFBGM
TAF AMD
KBGM 260907Z 2609/2706 20006KT P6SM SCT015 BKN150
      TEMPO 2612/2615 4SM BR OVC015
     FM261500 18006KT 5SM -RA BR OVC009
     FM262200 32006KT 2SM -RASN BR OVC005
     FM270200 32006KT 2SM -SN BR OVC005=



000
FTUS41 KBGM 260900 AAB
TAFELM
TAF AMD
KELM 260907Z 2609/2706 00000KT 2SM BR SCT010
      TEMPO 2609/2612 1/2SM FZFG VV010
     FM261400 VRB03KT 5SM -RA BR OVC025
     FM261800 VRB05KT 3SM -RA BR OVC015
     FM262200 VRB05KT 2SM -RASN BR OVC012
     FM270200 VRB03KT 2SM -SN BR OVC008=



000
FTUS41 KBGM 260900 AAA
TAFAVP
TAF AMD
KAVP 260907Z 2609/2706 VRB03KT 5SM BR SCT025 BKN200
      TEMPO 2612/2615 BKN015
     FM261500 23005KT P6SM OVC015
     FM261800 22008G15KT P6SM -RA OVC015
     FM270300 33006KT 3SM -RASN BR OVC015=



000
FTUS41 KBGM 260900 AAA
TAFITH
TAF AMD
KITH 260907Z 2609/2706 20005KT P6SM SCT025 BKN200
      TEMPO 2610/2614 OVC025
     FM261400 VRB03KT 5SM -RA BR OVC015
     FM261900 33006KT 3SM -RASN BR OVC007
     FM270100 34005KT 2SM -SN BR OVC007=



000
FTUS41 KBGM 260900 AAA
TAFSYR
TAF AMD
KSYR 260907Z 2609/2706 20008KT P6SM OVC025
     FM261500 VRB03KT 5SM -RA BR OVC025
     FM261700 34005KT 3SM -RA BR OVC015
      TEMPO 2620/2624 2SM -RASN BR OVC007
     FM270000 27006KT 2SM -SN BR OVC007=



000
FTUS41 KBGM 260700 AAA
TAFELM
TAF AMD
KELM 260715Z 2607/2706 00000KT 2SM BR SKC
     FM261400 VRB03KT 5SM -RA BR OVC025
     FM261800 VRB05KT 3SM -RA BR OVC015
     FM262200 VRB05KT 2SM -RASN BR OVC012
     FM270200 VRB03KT 2SM -SN BR OVC008=



000
FTUS41 KBGM 260500 RRA
TAFBGM
TAF
KBGM 260541Z 2606/2706 18008KT P6SM SCT025 BKN200
     FM260900 20006KT P6SM BKN015
     FM261400 18006KT 5SM -RA BR OVC009
     FM262200 32006KT 2SM -RASN BR OVC005
     FM270200 32006KT 2SM -SN BR OVC005=



000
FTUS41 KBGM 260500 RRA
TAFITH
TAF
KITH 260541Z 2606/2706 18008KT P6SM SCT025 BKN200
     FM261000 VRB03KT P6SM OVC025
     FM261400 VRB03KT 5SM -RA BR OVC015
     FM261900 33006KT 3SM -RASN BR OVC007
     FM270100 34005KT 2SM -SN BR OVC007=



000
FTUS41 KBGM 260500 RRA
TAFELM
TAF
KELM 260541Z 2606/2706 VRB03KT 5SM BR SCT025 BKN200
     FM261400 VRB03KT 5SM -RA BR OVC025
     FM261800 VRB05KT 3SM -RA BR OVC015
     FM262200 VRB05KT 2SM -RASN BR OVC012
     FM270200 VRB03KT 2SM -SN BR OVC008=



000
FTUS41 KBGM 260500 RRA
TAFAVP
TAF
KAVP 260541Z 2606/2706 VRB03KT 5SM BR SCT025 BKN200
     FM260800 VRB03KT 4SM BR BKN015
     FM261500 23005KT P6SM OVC015
     FM261800 22008G15KT P6SM -RA OVC015
     FM270300 33006KT 3SM -RASN BR OVC015=



000
FTUS41 KBGM 260500 RRA
TAFSYR
TAF
KSYR 260541Z 2606/2706 20008KT P6SM SCT035 BKN200
     FM261500 VRB03KT 5SM -RA BR OVC025
     FM261700 34005KT 3SM -RA BR OVC015
      TEMPO 2620/2624 2SM -RASN BR OVC007
     FM270000 27006KT 2SM -SN BR OVC007=



000
FTUS41 KBGM 260500 RRA
TAFBGM
TAF
KBGM 260541Z 2606/2706 18008KT P6SM SCT025 BKN200
     FM260900 20006KT P6SM BKN015
     FM261400 18006KT 5SM -RA BR OVC009
     FM262200 32006KT 2SM -RASN BR OVC005
     FM270200 32006KT 2SM -SN BR OVC005=



000
FTUS41 KBGM 260500 RRA
TAFELM
TAF
KELM 260541Z 2606/2706 VRB03KT 5SM BR SCT025 BKN200
     FM261400 VRB03KT 5SM -RA BR OVC025
     FM261800 VRB05KT 3SM -RA BR OVC015
     FM262200 VRB05KT 2SM -RASN BR OVC012
     FM270200 VRB03KT 2SM -SN BR OVC008=



000
FTUS41 KBGM 260500 RRA
TAFITH
TAF
KITH 260541Z 2606/2706 18008KT P6SM SCT025 BKN200
     FM261000 VRB03KT P6SM OVC025
     FM261400 VRB03KT 5SM -RA BR OVC015
     FM261900 33006KT 3SM -RASN BR OVC007
     FM270100 34005KT 2SM -SN BR OVC007=



000
FTUS41 KBGM 260500 RRA
TAFSYR
TAF
KSYR 260541Z 2606/2706 20008KT P6SM SCT035 BKN200
     FM261500 VRB03KT 5SM -RA BR OVC025
     FM261700 34005KT 3SM -RA BR OVC015
      TEMPO 2620/2624 2SM -RASN BR OVC007
     FM270000 27006KT 2SM -SN BR OVC007=



000
FTUS41 KBGM 260500 RRA
TAFAVP
TAF
KAVP 260541Z 2606/2706 VRB03KT 5SM BR SCT025 BKN200
     FM260800 VRB03KT 4SM BR BKN015
     FM261500 23005KT P6SM OVC015
     FM261800 22008G15KT P6SM -RA OVC015
     FM270300 33006KT 3SM -RASN BR OVC015=



000
FTUS41 KBGM 260400 AAA
TAFBGM
TAF AMD
KBGM 260435Z 2605/2624 18008KT P6SM SCT025 BKN200
      TEMPO 2605/2608 BKN025
     FM260800 20006KT P6SM BKN015
     FM261400 18006KT 5SM -RA BR OVC009
     FM262000 32006KT 2SM -RA BR OVC005=



000
FTUS41 KBGM 260400 AAB
TAFITH
TAF AMD
KITH 260430Z 2605/2624 18011KT P6SM SCT025 BKN200
     FM260900 VRB03KT P6SM OVC025
     FM261400 VRB03KT 5SM -RA BR OVC015
     FM261900 33006KT 3SM -RA BR OVC007=



000
FTUS41 KBGM 260400 AAB
TAFITH
TAF AMD
KITH 260430Z 2605/2624 18011KT P6SM SCT025 BKN200
     FM260900 VRB03KT P6SM OVC025
     FM261400 VRB03KT 5SM -RA BR OVC015
     FM261900 33006KT 3SM -RA BR OVC007=



000
FTUS41 KBGM 260400 AAB
TAFSYR
TAF AMD
KSYR 260427Z 2604/2624 20010KT P6SM SCT035 BKN200
     FM261500 VRB03KT 5SM -RA BR OVC015
      TEMPO 2620/2624 -RASN BR OVC010=



000
FTUS41 KBGM 260400 AAB
TAFSYR
TAF AMD
KSYR 260427Z 2604/2624 20010KT P6SM SCT035 BKN200
     FM261500 VRB03KT 5SM -RA BR OVC015
      TEMPO 2620/2624 -RASN BR OVC010=



000
FTUS41 KBGM 260100 AAA
TAFELM
TAF AMD
KELM 260131Z 2602/2624 23003KT P6SM OVC040
     FM261400 VRB03KT 5SM -RA BR OVC025=



000
FTUS41 KBGM 260100 AAA
TAFELM
TAF AMD
KELM 260131Z 2602/2624 23003KT P6SM OVC040
     FM261400 VRB03KT 5SM -RA BR OVC025=



000
FTUS41 KBGM 260100 AAA
TAFITH
TAF AMD
KITH 260130Z 2602/2624 18011KT P6SM OVC025
     FM261600 VRB03KT 5SM -RA BR OVC015
     FM261900 33006KT 5SM -RA BR OVC007=



000
FTUS41 KBGM 260000 AAA
TAFSYR
TAF AMD
KSYR 260023Z 2600/2624 20012G25KT P6SM OVC040 WS020/18045KT
      TEMPO 2600/2603 OVC028
     FM260300 23008KT P6SM OVC025
     FM261500 VRB03KT 5SM -RA BR OVC015
      TEMPO 2620/2624 -RASN BR OVC010=



000
FTUS41 KBGM 260000 AAA
TAFSYR
TAF AMD
KSYR 260023Z 2600/2624 20012G25KT P6SM OVC040 WS020/18045KT
      TEMPO 2600/2603 OVC028
     FM260300 23008KT P6SM OVC025
     FM261500 VRB03KT 5SM -RA BR OVC015
      TEMPO 2620/2624 -RASN BR OVC010=



000
FTUS41 KBGM 260000 CCA
TAFSYR
TAF COR
KSYR 260005Z 2600/2624 20012G25KT P6SM OVC040 WS020/18045KT
     FM260300 23008KT P6SM OVC025
     FM261500 VRB03KT 5SM -RA BR OVC015
      TEMPO 2620/2624 -RASN BR OVC010=



000
FTUS41 KBGM 252300
TAFITH
TAF
KITH 252339Z 2600/2624 17015G26KT P6SM OVC035 WS020/19045KT
     FM260300 18008KT P6SM OVC025
     FM261600 VRB03KT 5SM -RA BR OVC015
     FM261900 33006KT 5SM -RA BR OVC007=



000
FTUS41 KBGM 252300
TAFSYR
TAF
KSYR 252339Z 2600/2624 20012KT P6SM OVC040 WS020/18045KT
     FM260300 23008KT P6SM OVC025
     FM261500 VRB03KT 5SM -RA BR OVC015
      TEMPO 2620/2624 -RASN BR OVC010=



000
FTUS41 KBGM 252300
TAFAVP
TAF
KAVP 252339Z 2600/2624 21006KT P6SM OVC035 WS020/20045KT
      TEMPO 2600/2603 OVC018
     FM260300 VRB03KT 5SM BR OVC025
     FM261500 VRB06KT 5SM -RA BR OVC015=



000
FTUS41 KBGM 252300
TAFELM
TAF
KELM 252339Z 2600/2624 20010KT P6SM OVC025
     FM260400 23003KT P6SM OVC040
     FM261400 VRB03KT 5SM -RA BR OVC025=



000
FTUS41 KBGM 252300
TAFBGM
TAF
KBGM 252339Z 2600/2624 18011KT P6SM OVC035 WS020/19045KT
     FM260300 21007KT P6SM OVC020
      TEMPO 2608/2612 OVC005
     FM261400 VRB06KT 5SM -RA BR OVC009=



000
FTUS41 KBGM 252300
TAFAVP
TAF
KAVP 252339Z 2600/2624 21006KT P6SM OVC035 WS020/20045KT
      TEMPO 2600/2603 OVC018
     FM260300 VRB03KT 5SM BR OVC025
     FM261500 VRB06KT 5SM -RA BR OVC015=



000
FTUS41 KBGM 252300
TAFBGM
TAF
KBGM 252339Z 2600/2624 18011KT P6SM OVC035 WS020/19045KT
     FM260300 21007KT P6SM OVC020
      TEMPO 2608/2612 OVC005
     FM261400 VRB06KT 5SM -RA BR OVC009=



000
FTUS41 KBGM 252300
TAFITH
TAF
KITH 252339Z 2600/2624 17015G26KT P6SM OVC035 WS020/19045KT
     FM260300 18008KT P6SM OVC025
     FM261600 VRB03KT 5SM -RA BR OVC015
     FM261900 33006KT 5SM -RA BR OVC007=



000
FTUS41 KBGM 252300
TAFELM
TAF
KELM 252339Z 2600/2624 20010KT P6SM OVC025
     FM260400 23003KT P6SM OVC040
     FM261400 VRB03KT 5SM -RA BR OVC025=



000
FTUS41 KBGM 252300
TAFSYR
TAF
KSYR 252339Z 2600/2624 20012KT P6SM OVC040 WS020/18045KT
     FM260300 23008KT P6SM OVC025
     FM261500 VRB03KT 5SM -RA BR OVC015
      TEMPO 2620/2624 -RASN BR OVC010=



000
FTUS41 KBGM 252000 AAA
TAFAVP
TAF AMD
KAVP 252033Z 2521/2618 21007KT P6SM OVC035 WS020/20045KT
      TEMPO 2521/2524 5SM -SHRA BR OVC015
     FM260300 VRB03KT 5SM BR OVC025
     FM261500 VRB03KT 5SM -RA BR OVC015=



000
FTUS41 KBGM 252000 AAA
TAFITH
TAF AMD
KITH 252031Z 2521/2618 17015G26KT P6SM OVC035 WS020/19045KT
      TEMPO 2521/2524 5SM -SHRA BR OVC015
     FM260300 18008KT P6SM OVC025
     FM261400 VRB03KT 5SM -RA BR OVC015=



000
FTUS41 KBGM 252000 AAA
TAFITH
TAF AMD
KITH 252031Z 2521/2618 17015G26KT P6SM OVC035 WS020/19045KT
      TEMPO 2521/2524 5SM -SHRA BR OVC015
     FM260300 18008KT P6SM OVC025
     FM261400 VRB03KT 5SM -RA BR OVC015=



000
FTUS41 KBGM 252000 AAA
TAFBGM
TAF AMD
KBGM 252010Z 2520/2618 18012G22KT P6SM OVC025 WS020/19045KT
      TEMPO 2520/2524 5SM -FZRA BR OVC015
     FM260300 21007KT P6SM OVC025
     FM261400 VRB03KT 5SM -RA BR OVC015=



000
FTUS41 KBGM 251700
TAFSYR
TAF
KSYR 251740Z 2518/2618 15012G22KT P6SM OVC080
     FM251900 17010G20KT P6SM OVC035 WS020/18045KT
      TEMPO 2519/2523 5SM -SHRA BR OVC025
     FM260300 23008KT P6SM OVC025
     FM261500 VRB03KT 5SM -RA BR OVC015=



000
FTUS41 KBGM 251700
TAFELM
TAF
KELM 251740Z 2518/2618 20010G18KT P6SM OVC035 WS020/19045KT
      TEMPO 2518/2522 5SM -SHRA BR OVC025
     FM260000 23003KT P6SM OVC040
     FM261400 VRB03KT 5SM -RA BR OVC025=



000
FTUS41 KBGM 251700
TAFBGM
TAF
KBGM 251740Z 2518/2618 18012G22KT P6SM OVC025 WS020/19045KT
      TEMPO 2519/2523 5SM -SHRA BR OVC015
     FM260300 21007KT P6SM OVC025
     FM261400 VRB03KT 5SM -RA BR OVC015=



000
FTUS41 KBGM 251700
TAFAVP
TAF
KAVP 251740Z 2518/2618 21010KT P6SM OVC035 WS020/20045KT
      TEMPO 2519/2523 5SM -SHRA BR OVC015
     FM260300 VRB03KT 5SM BR OVC025
     FM261500 VRB03KT 5SM -RA BR OVC015=



000
FTUS41 KBGM 251700
TAFITH
TAF
KITH 251740Z 2518/2618 17012G22KT P6SM OVC025 WS020/19045KT
      TEMPO 2518/2522 5SM -SHRA BR OVC015
     FM260300 18008KT P6SM OVC025
     FM261400 VRB03KT 5SM -RA BR OVC015=



000
FTUS41 KBGM 251700
TAFSYR
TAF
KSYR 251740Z 2518/2618 15012G22KT P6SM OVC080
     FM251900 17010G20KT P6SM OVC035 WS020/18045KT
      TEMPO 2519/2523 5SM -SHRA BR OVC025
     FM260300 23008KT P6SM OVC025
     FM261500 VRB03KT 5SM -RA BR OVC015=



000
FTUS41 KBGM 251700
TAFBGM
TAF
KBGM 251740Z 2518/2618 18012G22KT P6SM OVC025 WS020/19045KT
      TEMPO 2519/2523 5SM -SHRA BR OVC015
     FM260300 21007KT P6SM OVC025
     FM261400 VRB03KT 5SM -RA BR OVC015=



000
FTUS41 KBGM 251700
TAFAVP
TAF
KAVP 251740Z 2518/2618 21010KT P6SM OVC035 WS020/20045KT
      TEMPO 2519/2523 5SM -SHRA BR OVC015
     FM260300 VRB03KT 5SM BR OVC025
     FM261500 VRB03KT 5SM -RA BR OVC015=



000
FTUS41 KBGM 251700
TAFITH
TAF
KITH 251740Z 2518/2618 17012G22KT P6SM OVC025 WS020/19045KT
      TEMPO 2518/2522 5SM -SHRA BR OVC015
     FM260300 18008KT P6SM OVC025
     FM261400 VRB03KT 5SM -RA BR OVC015=



000
FTUS41 KBGM 251700
TAFELM
TAF
KELM 251740Z 2518/2618 20010G18KT P6SM OVC035 WS020/19045KT
      TEMPO 2518/2522 5SM -SHRA BR OVC025
     FM260000 23003KT P6SM OVC040
     FM261400 VRB03KT 5SM -RA BR OVC025=



000
FTUS41 KBGM 251500 AAA
TAFBGM
TAF AMD
KBGM 251507Z 2515/2612 17015G25KT P6SM BKN120
     FM251900 19010G20KT P6SM OVC025 WS020/20040KT
      TEMPO 2519/2523 -RA OVC015
     FM260600 21007KT P6SM OVC025=



000
FTUS41 KBGM 251500 AAA
TAFBGM
TAF AMD
KBGM 251507Z 2515/2612 17015G25KT P6SM BKN120
     FM251900 19010G20KT P6SM OVC025 WS020/20040KT
      TEMPO 2519/2523 -RA OVC015
     FM260600 21007KT P6SM OVC025=



000
FTUS41 KBGM 251500 AAA
TAFITH
TAF AMD
KITH 251506Z 2515/2612 18015G25KT P6SM BKN120
     FM251900 17015G25KT P6SM OVC025 WS020/20040KT
      TEMPO 2519/2522 -RA OVC015
     FM260600 21005KT P6SM OVC040=



000
FTUS41 KBGM 251500 AAA
TAFITH
TAF AMD
KITH 251506Z 2515/2612 18015G25KT P6SM BKN120
     FM251900 17015G25KT P6SM OVC025 WS020/20040KT
      TEMPO 2519/2522 -RA OVC015
     FM260600 21005KT P6SM OVC040=



000
FTUS41 KBGM 251100
TAFAVP
TAF
KAVP 251124Z 2512/2612 10003KT P6SM BKN200
     FM251700 20010KT P6SM OVC050
     FM251900 21010KT P6SM OVC025 WS020/20040KT
      TEMPO 2519/2523 -RA OVC015
     FM260600 20004KT P6SM OVC025=



000
FTUS41 KBGM 251100
TAFBGM
TAF
KBGM 251124Z 2512/2612 15006KT P6SM BKN200
     FM251700 18010G20KT P6SM OVC060
     FM251900 19010G20KT P6SM OVC025 WS020/20040KT
      TEMPO 2519/2523 -RA OVC015
     FM260600 21007KT P6SM OVC025=



000
FTUS41 KBGM 251100
TAFSYR
TAF
KSYR 251124Z 2512/2612 10003KT P6SM BKN200
     FM251700 16010KT P6SM OVC060
     FM251900 17010G20KT P6SM OVC035 WS020/22045KT
      TEMPO 2520/2524 -RA OVC025
     FM260600 22006KT P6SM OVC050=



000
FTUS41 KBGM 251100
TAFITH
TAF
KITH 251124Z 2512/2612 10005KT P6SM BKN200
     FM251600 16015KT P6SM OVC050
     FM251800 17015G25KT P6SM OVC025 WS020/20040KT
      TEMPO 2518/2522 -RA OVC015
     FM260600 21005KT P6SM OVC040=



000
FTUS41 KBGM 251100
TAFELM
TAF
KELM 251124Z 2512/2612 VRB02KT P6SM OVC200
     FM251600 17010G20KT P6SM OVC050
     FM251800 20010G20KT P6SM OVC035 WS020/20040KT
      TEMPO 2518/2522 -RA OVC025
     FM260600 23003KT P6SM OVC040=



000
FTUS41 KBGM 250800 AAA
TAFBGM
TAF AMD
KBGM 250833Z 2509/2606 14004KT P6SM FEW200
     FM251700 18010G20KT P6SM OVC120
     FM251900 19010G20KT P6SM OVC025
      TEMPO 2519/2523 -RA OVC015=



000
FTUS41 KBGM 250800 AAA
TAFELM
TAF AMD
KELM 250833Z 2509/2606 VRB02KT P6SM FEW200
     FM251600 18010KT P6SM OVC120
     FM251800 20010G20KT P6SM OVC035
      TEMPO 2518/2522 -RA OVC025=



000
FTUS41 KBGM 250800 AAA
TAFAVP
TAF AMD
KAVP 250833Z 2509/2606 10003KT P6SM SKC
     FM251700 20010KT P6SM OVC120
     FM251900 21010KT P6SM OVC025
      TEMPO 2519/2523 -RA OVC015=



000
FTUS41 KBGM 250800 AAA
TAFSYR
TAF AMD
KSYR 250833Z 2509/2606 10003KT P6SM FEW200
     FM251700 16010KT P6SM OVC120
     FM251900 17010G20KT P6SM OVC035
      TEMPO 2520/2524 -RA OVC025=



000
FTUS41 KBGM 250800 AAA
TAFITH
TAF AMD
KITH 250833Z 2509/2606 09003KT P6SM FEW200
     FM251600 16015KT P6SM OVC120
     FM251800 17015G25KT P6SM OVC025
      TEMPO 2518/2522 -RA OVC015=



000
FTUS41 KBGM 250800 AAA
TAFBGM
TAF AMD
KBGM 250833Z 2509/2606 14004KT P6SM FEW200
     FM251700 18010G20KT P6SM OVC120
     FM251900 19010G20KT P6SM OVC025
      TEMPO 2519/2523 -RA OVC015=



000
FTUS41 KBGM 250800 AAA
TAFAVP
TAF AMD
KAVP 250833Z 2509/2606 10003KT P6SM SKC
     FM251700 20010KT P6SM OVC120
     FM251900 21010KT P6SM OVC025
      TEMPO 2519/2523 -RA OVC015=



000
FTUS41 KBGM 250800 AAA
TAFSYR
TAF AMD
KSYR 250833Z 2509/2606 10003KT P6SM FEW200
     FM251700 16010KT P6SM OVC120
     FM251900 17010G20KT P6SM OVC035
      TEMPO 2520/2524 -RA OVC025=



000
FTUS41 KBGM 250800 AAA
TAFITH
TAF AMD
KITH 250833Z 2509/2606 09003KT P6SM FEW200
     FM251600 16015KT P6SM OVC120
     FM251800 17015G25KT P6SM OVC025
      TEMPO 2518/2522 -RA OVC015=



000
FTUS41 KBGM 250800 AAA
TAFELM
TAF AMD
KELM 250833Z 2509/2606 VRB02KT P6SM FEW200
     FM251600 18010KT P6SM OVC120
     FM251800 20010G20KT P6SM OVC035
      TEMPO 2518/2522 -RA OVC025=



000
FTUS41 KBGM 250500
TAFSYR
TAF
KSYR 250520Z 2506/2606 10003KT P6SM FEW200
     FM251700 16010KT P6SM OVC120
     FM251900 17010G20KT P6SM OVC035
      TEMPO 2520/2524 -RA OVC025=



000
FTUS41 KBGM 250500
TAFAVP
TAF
KAVP 250520Z 2506/2606 10003KT P6SM SKC
     FM251700 20010KT P6SM OVC120
     FM251900 21010KT P6SM OVC025
      TEMPO 2519/2523 -RA OVC015=



000
FTUS41 KBGM 250500
TAFBGM
TAF
KBGM 250520Z 2506/2606 14004KT P6SM FEW200
     FM251700 18010G20KT P6SM OVC120
     FM251900 19010G20KT P6SM OVC025
      TEMPO 2519/2523 -RA OVC015=



000
FTUS41 KBGM 250500
TAFELM
TAF
KELM 250520Z 2506/2606 VRB02KT P6SM FEW200
     FM251600 18010KT P6SM OVC120
     FM251800 20010G20KT P6SM OVC035
      TEMPO 2518/2522 -RA OVC025=



000
FTUS41 KBGM 250500
TAFITH
TAF
KITH 250520Z 2506/2606 09003KT P6SM FEW200
     FM251600 16015KT P6SM OVC120
     FM251800 17015G25KT P6SM OVC025
      TEMPO 2518/2522 -RA OVC015=



000
FTUS41 KBGM 250500
TAFELM
TAF
KELM 250520Z 2506/2606 VRB02KT P6SM FEW200
     FM251600 18010KT P6SM OVC120
     FM251800 20010G20KT P6SM OVC035
      TEMPO 2518/2522 -RA OVC025=



000
FTUS41 KBGM 250500
TAFAVP
TAF
KAVP 250520Z 2506/2606 10003KT P6SM SKC
     FM251700 20010KT P6SM OVC120
     FM251900 21010KT P6SM OVC025
      TEMPO 2519/2523 -RA OVC015=



000
FTUS41 KBGM 250500
TAFSYR
TAF
KSYR 250520Z 2506/2606 10003KT P6SM FEW200
     FM251700 16010KT P6SM OVC120
     FM251900 17010G20KT P6SM OVC035
      TEMPO 2520/2524 -RA OVC025=



000
FTUS41 KBGM 250500
TAFBGM
TAF
KBGM 250520Z 2506/2606 14004KT P6SM FEW200
     FM251700 18010G20KT P6SM OVC120
     FM251900 19010G20KT P6SM OVC025
      TEMPO 2519/2523 -RA OVC015=



000
FTUS41 KBGM 250500
TAFITH
TAF
KITH 250520Z 2506/2606 09003KT P6SM FEW200
     FM251600 16015KT P6SM OVC120
     FM251800 17015G25KT P6SM OVC025
      TEMPO 2518/2522 -RA OVC015=



000
FTUS41 KBGM 242300
TAFITH
TAF
KITH 242320Z 2500/2524 VRB03KT P6SM SKC
     FM251500 15012G20KT P6SM OVC050
     FM251800 16017G24KT 6SM -RA OVC025
     FM252200 18015G23KT 5SM -RA OVC015=



000
FTUS41 KBGM 242300
TAFAVP
TAF
KAVP 242320Z 2500/2524 VRB03KT P6SM SKC
     FM251600 20006KT P6SM OVC100
     FM251800 20008G14KT 6SM -RA OVC030=



000
FTUS41 KBGM 242300
TAFSYR
TAF
KSYR 242320Z 2500/2524 VRB03KT P6SM SCT200
     FM251600 12012KT P6SM BKN100 OVC200
     FM251800 16012G20KT 6SM -RA OVC040=



000
FTUS41 KBGM 242300
TAFELM
TAF
KELM 242320Z 2500/2524 VRB04KT P6SM SKC
     FM251500 19008KT P6SM OVC050
     FM251700 19013G19KT 6SM -RA OVC025=



000
FTUS41 KBGM 242300
TAFBGM
TAF
KBGM 242320Z 2500/2524 VRB04KT P6SM SKC
     FM251600 16012G20KT P6SM OVC100
     FM251800 18012G19KT 6SM -RA OVC025
     FM252100 18013G20KT 6SM -RA OVC010=



000
FTUS41 KBGM 242300
TAFAVP
TAF
KAVP 242320Z 2500/2524 VRB03KT P6SM SKC
     FM251600 20006KT P6SM OVC100
     FM251800 20008G14KT 6SM -RA OVC030=



000
FTUS41 KBGM 242300
TAFELM
TAF
KELM 242320Z 2500/2524 VRB04KT P6SM SKC
     FM251500 19008KT P6SM OVC050
     FM251700 19013G19KT 6SM -RA OVC025=



000
FTUS41 KBGM 242300
TAFBGM
TAF
KBGM 242320Z 2500/2524 VRB04KT P6SM SKC
     FM251600 16012G20KT P6SM OVC100
     FM251800 18012G19KT 6SM -RA OVC025
     FM252100 18013G20KT 6SM -RA OVC010=



000
FTUS41 KBGM 242300
TAFITH
TAF
KITH 242320Z 2500/2524 VRB03KT P6SM SKC
     FM251500 15012G20KT P6SM OVC050
     FM251800 16017G24KT 6SM -RA OVC025
     FM252200 18015G23KT 5SM -RA OVC015=



000
FTUS41 KBGM 242300
TAFSYR
TAF
KSYR 242320Z 2500/2524 VRB03KT P6SM SCT200
     FM251600 12012KT P6SM BKN100 OVC200
     FM251800 16012G20KT 6SM -RA OVC040=



000
FTUS41 KBGM 241700
TAFBGM
TAF
KBGM 241732Z 2418/2518 VRB04KT P6SM SKC
     FM251600 16012G20KT P6SM OVC100=



000
FTUS41 KBGM 241700
TAFSYR
TAF
KSYR 241732Z 2418/2518 VRB03KT P6SM SCT200
     FM251600 12012KT P6SM BKN100 OVC200=



000
FTUS41 KBGM 241700
TAFELM
TAF
KELM 241732Z 2418/2518 VRB03KT P6SM SKC
     FM251500 19008KT P6SM OVC050=



000
FTUS41 KBGM 241700
TAFITH
TAF
KITH 241732Z 2418/2518 VRB03KT P6SM SKC
     FM251500 15012G20KT P6SM OVC050=



000
FTUS41 KBGM 241700
TAFAVP
TAF
KAVP 241732Z 2418/2518 VRB03KT P6SM SKC
     FM251600 20006KT P6SM OVC100=



000
FTUS41 KBGM 241700
TAFELM
TAF
KELM 241732Z 2418/2518 VRB03KT P6SM SKC
     FM251500 19008KT P6SM OVC050=



000
FTUS41 KBGM 241700
TAFSYR
TAF
KSYR 241732Z 2418/2518 VRB03KT P6SM SCT200
     FM251600 12012KT P6SM BKN100 OVC200=



000
FTUS41 KBGM 241700
TAFITH
TAF
KITH 241732Z 2418/2518 VRB03KT P6SM SKC
     FM251500 15012G20KT P6SM OVC050=



000
FTUS41 KBGM 241700
TAFBGM
TAF
KBGM 241732Z 2418/2518 VRB04KT P6SM SKC
     FM251600 16012G20KT P6SM OVC100=



000
FTUS41 KBGM 241700
TAFAVP
TAF
KAVP 241732Z 2418/2518 VRB03KT P6SM SKC
     FM251600 20006KT P6SM OVC100=



000
FTUS41 KBGM 241100
TAFAVP
TAF
KAVP 241138Z 2412/2512 36005KT P6SM BKN120
     FM241900 31003KT P6SM SKC=



000
FTUS41 KBGM 241100
TAFITH
TAF
KITH 241138Z 2412/2512 VRB02KT P6SM BKN200
     FM241600 34003KT P6SM SKC=



000
FTUS41 KBGM 241100
TAFELM
TAF
KELM 241138Z 2412/2512 VRB02KT P6SM BKN150
     FM241800 VRB03KT P6SM SKC=



000
FTUS41 KBGM 241100
TAFAVP
TAF
KAVP 241138Z 2412/2512 36005KT P6SM BKN120
     FM241900 31003KT P6SM SKC=



000
FTUS41 KBGM 241100
TAFITH
TAF
KITH 241138Z 2412/2512 VRB02KT P6SM BKN200
     FM241600 34003KT P6SM SKC=



000
FTUS41 KBGM 241100
TAFBGM
TAF
KBGM 241138Z 2412/2512 36005KT P6SM BKN150
     FM241800 36003KT P6SM SKC=



000
FTUS41 KBGM 241100
TAFSYR
TAF
KSYR 241138Z 2412/2512 VRB02KT P6SM BKN200
     FM241600 36003KT P6SM SKC=



000
FTUS41 KBGM 241100
TAFELM
TAF
KELM 241138Z 2412/2512 VRB02KT P6SM BKN150
     FM241800 VRB03KT P6SM SKC=



000
FTUS41 KBGM 241100
TAFSYR
TAF
KSYR 241138Z 2412/2512 VRB02KT P6SM BKN200
     FM241600 36003KT P6SM SKC=



000
FTUS41 KBGM 241100
TAFBGM
TAF
KBGM 241138Z 2412/2512 36005KT P6SM BKN150
     FM241800 36003KT P6SM SKC=



000
FTUS41 KBGM 240800 AAA
TAFAVP
TAF AMD
KAVP 240831Z 2409/2506 36005KT P6SM OVC120
     FM241800 31003KT P6SM SKC=



000
FTUS41 KBGM 240800 AAA
TAFELM
TAF AMD
KELM 240831Z 2409/2506 VRB02KT P6SM BKN150
     FM241800 VRB03KT P6SM SKC=



000
FTUS41 KBGM 240800 AAA
TAFSYR
TAF AMD
KSYR 240831Z 2409/2506 VRB02KT P6SM BKN200
     FM241800 36003KT P6SM SKC=



000
FTUS41 KBGM 240800 AAA
TAFBGM
TAF AMD
KBGM 240831Z 2409/2506 36005KT P6SM BKN150
     FM241800 36003KT P6SM SKC=



000
FTUS41 KBGM 240800 AAA
TAFITH
TAF AMD
KITH 240831Z 2409/2506 VRB02KT P6SM BKN200
     FM241800 34003KT P6SM SKC=



000
FTUS41 KBGM 240800 AAA
TAFAVP
TAF AMD
KAVP 240831Z 2409/2506 36005KT P6SM OVC120
     FM241800 31003KT P6SM SKC=



000
FTUS41 KBGM 240800 AAA
TAFITH
TAF AMD
KITH 240831Z 2409/2506 VRB02KT P6SM BKN200
     FM241800 34003KT P6SM SKC=



000
FTUS41 KBGM 240800 AAA
TAFELM
TAF AMD
KELM 240831Z 2409/2506 VRB02KT P6SM BKN150
     FM241800 VRB03KT P6SM SKC=



000
FTUS41 KBGM 240800 AAA
TAFSYR
TAF AMD
KSYR 240831Z 2409/2506 VRB02KT P6SM BKN200
     FM241800 36003KT P6SM SKC=



000
FTUS41 KBGM 240800 AAA
TAFBGM
TAF AMD
KBGM 240831Z 2409/2506 36005KT P6SM BKN150
     FM241800 36003KT P6SM SKC=



    US Dept of Commerce
    National Oceanic and Atmospheric Administration
    National Weather Service
    1325 East West Highway
    Silver Spring, MD 20910
    Page Author: NWS Internet Services Team
Disclaimer
Information Quality
Credits
Glossary
Privacy Policy
Freedom of Information Act (FOIA)
About Us
Career Opportunities